createdAt,value
2019-05-05T00:01:47.619Z,6.67
2019-05-05T00:04:24.318Z,6.20
2019-05-05T00:06:54.911Z,9.15
2019-05-05T00:09:25.220Z,9.35
2019-05-05T00:12:11.427Z,6.37
2019-05-05T00:14:41.792Z,6.92
2019-05-05T00:17:14.348Z,3.87
2019-05-05T00:19:42.492Z,7.62
2019-05-05T00:22:11.261Z,11.28
2019-05-05T00:24:40.064Z,3.57
2019-05-05T00:27:09.385Z,4.55
2019-05-05T00:29:38.199Z,5.28
2019-05-05T00:32:07.012Z,5.22
2019-05-05T00:34:35.839Z,5.07
2019-05-05T00:37:04.811Z,4.20
2019-05-05T00:39:34.499Z,4.50
2019-05-05T00:44:35.076Z,5.95
2019-05-05T00:47:24.944Z,12.30
2019-05-05T00:49:56.119Z,5.20
2019-05-05T00:52:24.580Z,5.95
2019-05-05T00:54:55.448Z,8.25
2019-05-05T00:57:24.285Z,5.40
2019-05-05T00:59:54.405Z,9.10
2019-05-05T01:02:27.778Z,3.95
2019-05-05T01:05:01.123Z,4.05
2019-05-05T01:07:30.353Z,2.90
2019-05-05T01:09:59.118Z,5.87
2019-05-05T01:12:28.031Z,5.47
2019-05-05T01:14:56.851Z,5.50
2019-05-05T01:17:25.688Z,7.13
2019-05-05T01:20:03.233Z,5.77
2019-05-05T01:22:25.107Z,6.22
2019-05-05T01:24:55.437Z,5.58
2019-05-05T01:27:25.480Z,8.73
2019-05-05T01:29:54.664Z,3.20
2019-05-05T01:32:28.128Z,5.85
2019-05-05T01:34:56.964Z,4.65
2019-05-05T01:37:27.341Z,4.93
2019-05-05T01:40:04.977Z,5.97
2019-05-05T01:42:35.255Z,5.10
2019-05-05T01:45:04.612Z,6.70
2019-05-05T01:47:34.702Z,9.13
2019-05-05T01:50:17.213Z,4.47
2019-05-05T01:52:35.396Z,6.30
2019-05-05T01:55:05.994Z,4.63
2019-05-05T01:57:35.311Z,4.12
2019-05-05T02:00:07.336Z,7.72
2019-05-05T02:02:36.195Z,8.83
2019-05-05T02:05:06.833Z,3.93
2019-05-05T02:07:35.644Z,7.40
2019-05-05T02:10:06.400Z,13.70
2019-05-05T02:12:35.386Z,8.08
2019-05-05T02:15:06.603Z,9.25
2019-05-05T02:17:35.431Z,4.92
2019-05-05T02:20:05.867Z,4.30
2019-05-05T02:22:35.635Z,5.35
2019-05-05T02:25:06.172Z,4.95
2019-05-05T02:27:34.930Z,11.60
2019-05-05T02:30:06.608Z,9.37
2019-05-05T02:32:39.732Z,3.75
2019-05-05T02:35:18.643Z,4.85
2019-05-05T02:37:47.401Z,8.73
2019-05-05T02:40:17.220Z,10.33
2019-05-05T02:45:24.766Z,11.53
2019-05-05T02:48:05.977Z,8.73
2019-05-05T02:50:52.400Z,7.47
2019-05-05T02:53:10.390Z,10.05
2019-05-05T02:55:39.232Z,7.35
2019-05-05T02:58:08.057Z,11.67
2019-05-05T03:00:40.910Z,12.60
2019-05-05T03:03:09.818Z,7.08
2019-05-05T03:05:38.684Z,7.87
2019-05-05T03:08:07.491Z,7.87
2019-05-05T03:10:36.330Z,10.85
2019-05-05T03:13:05.832Z,11.47
2019-05-05T03:15:55.643Z,8.35
2019-05-05T03:18:24.802Z,10.98
2019-05-05T03:21:02.379Z,12.40
2019-05-05T03:23:24.212Z,7.80
2019-05-05T03:25:54.578Z,8.73
2019-05-05T03:28:25.712Z,9.03
2019-05-05T03:30:55.760Z,6.92
2019-05-05T03:33:25.267Z,10.00
2019-05-05T03:35:54.304Z,9.90
2019-05-05T03:38:24.822Z,10.43
2019-05-05T03:40:55.312Z,7.53
2019-05-05T03:43:25.700Z,10.53
2019-05-05T03:45:56.186Z,8.08
2019-05-05T03:48:25.132Z,10.03
2019-05-05T03:50:54.207Z,7.85
2019-05-05T03:53:24.593Z,9.78
2019-05-05T03:55:54.583Z,10.50
2019-05-05T03:58:24.133Z,6.25
2019-05-05T04:00:55.975Z,10.10
2019-05-05T04:03:24.722Z,7.92
2019-05-05T04:05:57.866Z,8.37
2019-05-05T04:08:26.691Z,10.93
2019-05-05T04:10:55.511Z,6.13
2019-05-05T04:13:24.464Z,10.17
2019-05-05T04:16:06.963Z,12.40
2019-05-05T04:18:43.628Z,8.55
2019-05-05T04:21:14.396Z,9.55
2019-05-05T04:23:44.164Z,11.83
2019-05-05T04:26:14.228Z,9.50
2019-05-05T04:28:43.643Z,7.97
2019-05-05T04:31:13.540Z,9.78
2019-05-05T04:33:44.338Z,10.85
2019-05-05T04:36:14.562Z,6.85
2019-05-05T04:38:43.981Z,6.20
2019-05-05T04:41:14.035Z,10.30
2019-05-05T04:43:44.187Z,11.38
2019-05-05T04:46:14.042Z,9.65
2019-05-05T04:54:00.250Z,6.37
2019-05-05T04:56:30.097Z,6.72
2019-05-05T04:58:58.900Z,6.35
2019-05-05T05:01:27.708Z,13.25
2019-05-05T05:04:16.364Z,6.63
2019-05-05T05:06:46.692Z,12.23
2019-05-05T05:09:15.433Z,8.55
2019-05-05T05:11:44.386Z,6.10
2019-05-05T05:14:14.380Z,8.10
2019-05-05T05:16:43.744Z,8.10
2019-05-05T05:19:13.741Z,6.92
2019-05-05T05:21:43.652Z,5.70
2019-05-05T05:24:14.495Z,4.95
2019-05-05T05:26:44.162Z,4.70
2019-05-05T05:29:14.914Z,5.60
2019-05-05T05:31:44.294Z,5.97
2019-05-05T05:36:41.239Z,4.25
2019-05-05T05:39:14.507Z,4.85
2019-05-05T05:41:44.036Z,7.90
2019-05-05T05:44:18.012Z,8.58
2019-05-05T05:46:54.636Z,4.22
2019-05-05T05:49:30.955Z,5.08
2019-05-05T05:52:12.548Z,3.58
2019-05-05T05:54:30.659Z,4.75
2019-05-05T05:56:59.394Z,5.78
2019-05-05T05:59:28.085Z,4.47
2019-05-05T06:02:09.162Z,6.25
2019-05-05T06:04:28.446Z,5.55
2019-05-05T06:06:57.175Z,6.42
2019-05-05T06:09:26.016Z,4.50
2019-05-05T06:11:54.724Z,7.47
2019-05-05T06:14:24.711Z,5.85
2019-05-05T06:16:53.949Z,7.12
2019-05-05T06:19:24.503Z,4.60
2019-05-05T06:21:54.292Z,5.80
2019-05-05T06:24:24.014Z,3.77
2019-05-05T06:26:54.744Z,4.85
2019-05-05T06:29:23.945Z,8.53
2019-05-05T06:31:53.818Z,5.45
2019-05-05T06:34:24.405Z,10.18
2019-05-05T06:39:59.063Z,9.00
2019-05-05T06:42:29.427Z,4.15
2019-05-05T06:45:04.235Z,6.90
2019-05-05T06:47:34.211Z,4.95
2019-05-05T06:50:04.477Z,8.10
2019-05-05T06:52:43.747Z,10.05
2019-05-05T06:55:04.618Z,10.75
2019-05-05T06:57:34.329Z,5.85
2019-05-05T07:00:06.084Z,6.30
2019-05-05T07:02:35.639Z,6.75
2019-05-05T07:05:05.255Z,4.67
2019-05-05T07:07:34.384Z,9.08
2019-05-05T07:10:04.572Z,6.33
2019-05-05T07:12:34.708Z,4.65
2019-05-05T07:15:05.510Z,7.22
2019-05-05T07:17:35.493Z,6.15
2019-05-05T07:20:08.172Z,6.28
2019-05-05T07:22:37.003Z,3.92
2019-05-05T07:25:06.182Z,5.90
2019-05-05T07:27:36.931Z,6.87
2019-05-05T07:30:07.086Z,7.65
2019-05-05T07:32:37.234Z,9.00
2019-05-05T07:35:08.221Z,6.55
2019-05-05T07:37:37.167Z,3.67
2019-05-05T07:40:07.826Z,2.95
2019-05-05T07:42:36.591Z,4.67
2019-05-05T07:45:19.446Z,9.60
2019-05-05T07:47:38.656Z,6.90
2019-05-05T07:50:14.539Z,5.97
2019-05-05T07:52:38.671Z,6.53
2019-05-05T07:55:07.469Z,7.00
2019-05-05T07:57:36.763Z,6.10
2019-05-05T08:00:07.400Z,3.27
2019-05-05T08:02:36.152Z,6.10
2019-05-05T08:05:07.171Z,5.60
2019-05-05T08:07:35.911Z,4.33
2019-05-05T08:10:06.339Z,8.17
2019-05-05T08:12:35.075Z,5.35
2019-05-05T08:15:07.821Z,7.23
2019-05-05T08:17:39.004Z,5.30
2019-05-05T08:20:19.207Z,5.97
2019-05-05T08:22:46.561Z,7.20
2019-05-05T08:25:34.524Z,5.27
2019-05-05T08:28:10.707Z,5.40
2019-05-05T08:30:44.193Z,8.05
2019-05-05T08:33:14.084Z,6.12
2019-05-05T08:35:44.829Z,7.00
2019-05-05T08:38:13.764Z,5.80
2019-05-05T08:40:43.806Z,4.72
2019-05-05T08:43:13.825Z,6.10
2019-05-05T08:45:44.336Z,5.37
2019-05-05T08:48:14.205Z,5.87
2019-05-05T08:50:43.871Z,4.35
2019-05-05T08:55:44.328Z,4.08
2019-05-05T09:01:54.121Z,6.22
2019-05-05T09:04:24.698Z,8.20
2019-05-05T09:06:54.306Z,5.37
2019-05-05T09:09:24.149Z,5.90
2019-05-05T09:11:54.180Z,5.75
2019-05-05T09:14:24.024Z,5.65
2019-05-05T09:21:54.133Z,5.28
2019-05-05T09:24:39.200Z,4.03
2019-05-05T09:27:14.185Z,6.45
2019-05-05T09:29:44.109Z,6.87
2019-05-05T09:32:13.957Z,5.80
2019-05-05T09:34:43.579Z,7.45
2019-05-05T09:39:40.452Z,4.60
2019-05-05T09:42:09.272Z,6.50
2019-05-05T09:44:38.090Z,5.23
2019-05-05T09:47:06.915Z,5.77
2019-05-05T09:49:35.655Z,5.23
2019-05-05T09:52:04.957Z,6.63
2019-05-05T09:54:34.555Z,8.83
2019-05-05T09:57:04.510Z,7.22
2019-05-05T09:59:34.652Z,7.03
2019-05-05T10:02:04.422Z,8.63
2019-05-05T10:04:34.539Z,7.87
2019-05-05T10:07:04.468Z,13.68
2019-05-05T10:09:34.489Z,11.93
2019-05-05T10:12:04.749Z,7.45
2019-05-05T10:14:35.105Z,6.12
2019-05-05T10:17:04.918Z,7.70
2019-05-05T10:19:33.857Z,5.08
2019-05-05T10:22:04.030Z,9.63
2019-05-05T10:24:37.346Z,7.05
2019-05-05T10:27:06.159Z,5.87
2019-05-05T10:29:34.903Z,6.07
2019-05-05T10:32:04.576Z,7.58
2019-05-05T10:34:33.598Z,6.33
2019-05-05T10:37:04.186Z,8.68
2019-05-05T10:39:40.520Z,14.95
2019-05-05T10:42:09.380Z,5.42
2019-05-05T10:44:38.087Z,4.42
2019-05-05T10:47:06.835Z,9.77
2019-05-05T10:49:35.666Z,6.10
2019-05-05T10:52:04.412Z,6.22
2019-05-05T10:54:43.831Z,7.93
2019-05-05T10:57:04.190Z,5.15
2019-05-05T10:59:34.425Z,7.25
2019-05-05T11:02:04.925Z,4.75
2019-05-05T11:04:34.023Z,3.33
2019-05-05T11:07:04.189Z,4.45
2019-05-05T11:09:33.938Z,2.83
2019-05-05T11:12:02.679Z,1.80
2019-05-05T11:14:33.661Z,3.23
2019-05-05T11:17:04.117Z,5.55
2019-05-05T11:19:33.576Z,4.15
2019-05-05T11:22:02.488Z,5.17
2019-05-05T11:24:31.197Z,2.60
2019-05-05T11:26:59.929Z,2.83
2019-05-05T11:29:28.684Z,1.47
2019-05-05T11:31:59.076Z,2.75
2019-05-05T11:34:28.200Z,7.47
2019-05-05T11:36:58.639Z,10.20
2019-05-05T11:39:27.407Z,5.45
2019-05-05T11:41:56.312Z,2.70
2019-05-05T11:44:25.131Z,2.90
2019-05-05T11:46:54.719Z,1.27
2019-05-05T11:49:24.483Z,5.30
2019-05-05T11:51:54.256Z,4.28
2019-05-05T11:54:24.517Z,1.62
2019-05-05T11:56:54.016Z,1.35
2019-05-05T11:59:23.732Z,3.27
2019-05-05T12:01:54.963Z,7.25
2019-05-05T12:04:23.904Z,8.60
2019-05-05T12:06:52.874Z,3.95
2019-05-05T12:09:24.807Z,2.40
2019-05-05T12:11:54.587Z,3.15
2019-05-05T12:14:27.121Z,5.42
2019-05-05T12:16:55.475Z,6.15
2019-05-05T12:19:24.485Z,3.40
2019-05-05T12:21:54.847Z,2.22
2019-05-05T12:24:25.387Z,2.50
2019-05-05T12:26:55.706Z,7.58
2019-05-05T12:29:24.662Z,3.47
2019-05-05T12:31:53.465Z,3.87
2019-05-05T12:34:23.613Z,5.37
2019-05-05T12:36:53.966Z,2.33
2019-05-05T12:39:22.994Z,5.42
2019-05-05T12:42:05.115Z,9.55
2019-05-05T12:44:35.536Z,2.70
2019-05-05T12:47:06.159Z,1.92
2019-05-05T12:49:35.008Z,0.93
2019-05-05T12:52:04.756Z,1.55
2019-05-05T12:54:33.668Z,1.90
2019-05-05T12:57:04.399Z,2.15
2019-05-05T12:59:33.859Z,2.90
2019-05-05T13:02:03.820Z,3.60
2019-05-05T13:04:33.872Z,5.80
2019-05-05T13:07:04.984Z,3.20
2019-05-05T13:09:34.238Z,4.22
2019-05-05T13:12:04.525Z,2.95
2019-05-05T13:14:33.830Z,6.37
2019-05-05T13:17:03.631Z,5.28
2019-05-05T13:19:43.839Z,7.67
2019-05-05T13:22:30.599Z,7.87
2019-05-05T13:25:07.715Z,7.95
2019-05-05T13:27:39.716Z,6.62
2019-05-05T13:30:09.328Z,5.25
2019-05-05T13:32:38.214Z,5.10
2019-05-05T13:35:07.888Z,5.10
2019-05-05T13:37:36.729Z,5.87
2019-05-05T13:40:07.543Z,4.42
2019-05-05T13:42:36.380Z,4.72
2019-05-05T13:45:15.587Z,3.77
2019-05-05T13:50:23.292Z,5.25
2019-05-05T13:55:21.124Z,3.42
2019-05-05T13:57:54.828Z,6.22
2019-05-05T14:00:25.620Z,2.87
2019-05-05T14:02:54.535Z,3.52
2019-05-05T14:05:24.030Z,2.42
2019-05-05T14:07:53.681Z,3.15
2019-05-05T14:10:23.654Z,2.42
2019-05-05T14:12:52.557Z,1.45
2019-05-05T14:15:23.358Z,8.08
2019-05-05T14:17:51.931Z,3.00
2019-05-05T14:20:20.674Z,5.67
2019-05-05T14:22:51.202Z,4.05
2019-05-05T14:25:21.638Z,2.80
2019-05-05T14:27:50.456Z,5.67
2019-05-05T14:30:23.632Z,4.97
2019-05-05T14:32:54.349Z,7.90
2019-05-05T14:35:40.577Z,9.55
2019-05-05T14:38:10.971Z,5.03
2019-05-05T14:40:39.827Z,4.87
2019-05-05T14:43:08.626Z,6.70
2019-05-05T14:45:37.457Z,5.45
2019-05-05T14:48:07.901Z,5.17
2019-05-05T14:50:36.623Z,2.95
2019-05-05T14:53:05.377Z,4.58
2019-05-05T14:55:34.209Z,3.85
2019-05-05T14:58:04.020Z,12.13
2019-05-05T15:00:33.685Z,6.20
2019-05-05T15:03:03.649Z,4.70
2019-05-05T15:05:40.111Z,5.45
2019-05-05T15:08:10.501Z,3.65
2019-05-05T15:10:56.711Z,4.42
2019-05-05T15:13:25.916Z,3.58
2019-05-05T15:15:54.775Z,5.67
2019-05-05T15:18:24.168Z,5.60
2019-05-05T15:20:54.676Z,2.20
2019-05-05T15:23:24.104Z,2.08
2019-05-05T15:25:54.029Z,8.00
2019-05-05T15:28:24.554Z,2.92
2019-05-05T15:30:54.512Z,3.70
2019-05-05T15:33:24.330Z,6.85
2019-05-05T15:35:54.036Z,4.37
2019-05-05T15:38:24.411Z,3.47
2019-05-05T15:40:54.748Z,7.40
2019-05-05T15:43:24.277Z,9.50
2019-05-05T15:45:54.105Z,4.47
2019-05-05T15:48:23.151Z,2.52
2019-05-05T15:50:52.060Z,8.08
2019-05-05T15:53:20.879Z,3.42
2019-05-05T15:55:50.856Z,2.42
2019-05-05T15:58:20.843Z,5.90
2019-05-05T16:00:49.536Z,4.65
2019-05-05T16:03:19.527Z,4.77
2019-05-05T16:05:48.277Z,2.77
2019-05-05T16:08:17.109Z,4.37
2019-05-05T16:10:46.601Z,3.00
2019-05-05T16:13:15.686Z,5.25
2019-05-05T16:15:46.092Z,3.55
2019-05-05T16:18:16.489Z,2.90
2019-05-05T16:20:58.614Z,4.35
2019-05-05T16:23:35.949Z,3.25
2019-05-05T16:26:04.828Z,2.77
2019-05-05T16:28:34.258Z,7.50
2019-05-05T16:33:30.951Z,8.95
2019-05-05T16:35:59.623Z,3.87
2019-05-05T16:38:28.441Z,3.98
2019-05-05T16:40:57.256Z,3.42
2019-05-05T16:43:26.074Z,4.00
2019-05-05T16:45:56.708Z,8.30
2019-05-05T16:48:25.764Z,4.08
2019-05-05T16:53:35.410Z,2.92
2019-05-05T16:56:09.081Z,2.45
2019-05-05T16:58:41.264Z,2.98
2019-05-05T17:01:14.425Z,7.12
2019-05-05T17:03:45.447Z,3.70
2019-05-05T17:06:14.036Z,4.45
2019-05-05T17:08:44.419Z,3.98
2019-05-05T17:11:15.809Z,5.95
2019-05-05T17:13:50.523Z,7.60
2019-05-05T17:16:29.904Z,4.62
2019-05-05T17:19:15.511Z,3.10
2019-05-05T17:21:53.616Z,6.85
2019-05-05T17:24:23.992Z,6.67
2019-05-05T17:26:54.966Z,20.37
2019-05-05T17:29:25.319Z,6.75
2019-05-05T17:31:54.214Z,4.62
2019-05-05T17:34:24.751Z,58.23
2019-05-05T17:36:53.984Z,54.55
2019-05-05T17:39:23.940Z,52.62
2019-05-05T17:41:56.081Z,35.05
2019-05-05T17:44:44.367Z,21.17
2019-05-05T17:47:21.951Z,3.35
2019-05-05T17:50:04.172Z,3.37
2019-05-05T17:52:51.320Z,3.02
2019-05-05T17:55:30.007Z,3.10
2019-05-05T17:58:02.130Z,4.28
2019-05-05T18:00:34.080Z,5.83
2019-05-05T18:03:04.181Z,11.38
2019-05-05T18:05:54.343Z,7.15
2019-05-05T18:08:35.815Z,4.33
2019-05-05T18:11:13.932Z,5.30
2019-05-05T18:13:44.174Z,11.03
2019-05-05T18:16:14.047Z,11.00
2019-05-05T18:18:44.467Z,6.78
2019-05-05T18:21:14.202Z,8.83
2019-05-05T18:23:43.844Z,5.78
2019-05-05T18:28:44.736Z,5.50
2019-05-05T18:31:13.932Z,9.30
2019-05-05T18:33:42.931Z,7.67
2019-05-05T18:36:14.176Z,7.90
2019-05-05T18:38:44.446Z,5.40
2019-05-05T18:41:15.085Z,6.78
2019-05-05T18:43:51.256Z,8.75
2019-05-05T18:46:20.789Z,9.45
2019-05-05T18:48:49.800Z,7.37
2019-05-05T18:51:18.648Z,12.03
2019-05-05T18:53:47.456Z,12.55
2019-05-05T18:56:16.281Z,13.88
2019-05-05T18:58:48.099Z,15.23
2019-05-05T19:01:36.338Z,21.10
2019-05-05T19:04:07.535Z,11.73
2019-05-05T19:06:49.112Z,9.90
2019-05-05T19:09:19.787Z,7.85
2019-05-05T19:11:50.562Z,18.42
2019-05-05T19:14:19.367Z,10.53
2019-05-05T19:16:48.305Z,10.07
2019-05-05T19:19:17.116Z,12.58
2019-05-05T19:22:05.112Z,8.93
2019-05-05T19:24:35.515Z,11.12
2019-05-05T19:27:05.680Z,11.03
2019-05-05T19:29:34.436Z,19.15
2019-05-05T19:32:04.112Z,18.40
2019-05-05T19:37:03.951Z,23.30
2019-05-05T19:39:34.452Z,19.80
2019-05-05T19:42:05.438Z,21.25
2019-05-05T19:44:34.275Z,22.70
2019-05-05T19:47:07.130Z,24.15
2019-05-05T19:49:39.020Z,20.97
2019-05-05T19:52:08.895Z,23.70
2019-05-05T19:54:37.907Z,21.05
2019-05-05T19:57:06.728Z,23.15
2019-05-05T19:59:36.129Z,29.47
2019-05-05T20:02:05.728Z,28.42
2019-05-05T20:04:36.569Z,31.97
2019-05-05T20:07:05.420Z,28.00
2019-05-05T20:09:35.048Z,27.60
2019-05-05T20:12:04.995Z,49.27
2019-05-05T20:14:34.269Z,41.48
2019-05-05T20:17:10.772Z,46.37
2019-05-05T20:19:41.151Z,29.60
2019-05-05T20:22:09.931Z,36.13
2019-05-05T20:24:38.691Z,36.70
2019-05-05T20:27:07.519Z,36.37
2019-05-05T20:29:37.504Z,37.90
2019-05-05T20:32:06.460Z,37.30
2019-05-05T20:34:42.411Z,27.37
2019-05-05T20:37:14.121Z,26.35
2019-05-05T20:39:43.960Z,32.53
2019-05-05T20:42:14.943Z,27.25
2019-05-05T20:44:43.870Z,37.08
2019-05-05T20:47:12.779Z,43.55
2019-05-05T20:49:41.459Z,45.37
2019-05-05T20:52:10.284Z,32.70
2019-05-05T20:54:39.056Z,33.93
2019-05-05T20:57:07.812Z,26.10
2019-05-05T20:59:36.519Z,27.37
2019-05-05T21:02:05.333Z,26.62
2019-05-05T21:04:34.623Z,31.63
2019-05-05T21:07:04.472Z,36.73
2019-05-05T21:09:34.468Z,36.25
2019-05-05T21:12:04.740Z,37.23
2019-05-05T21:14:37.102Z,46.45
2019-05-05T21:17:04.280Z,54.50
2019-05-05T21:19:34.516Z,46.65
2019-05-05T21:22:21.211Z,48.05
2019-05-05T21:24:50.332Z,51.28
2019-05-05T21:27:20.156Z,45.35
2019-05-05T21:29:48.839Z,46.95
2019-05-05T21:32:17.668Z,37.58
2019-05-05T21:34:46.449Z,43.73
2019-05-05T21:37:15.279Z,41.37
2019-05-05T21:39:45.453Z,38.50
2019-05-05T21:42:14.331Z,43.42
2019-05-05T21:44:44.228Z,41.73
2019-05-05T21:47:14.156Z,33.67
2019-05-05T21:49:43.074Z,23.87
2019-05-05T21:52:19.467Z,39.37
2019-05-05T21:54:49.855Z,25.80
2019-05-05T21:57:36.484Z,35.17
2019-05-05T22:00:10.509Z,29.45
2019-05-05T22:02:39.339Z,31.12
2019-05-05T22:05:08.421Z,33.00
2019-05-05T22:07:37.251Z,32.93
2019-05-05T22:10:06.415Z,30.33
2019-05-05T22:12:36.264Z,32.25
2019-05-05T22:15:06.352Z,35.98
2019-05-05T22:17:36.328Z,38.98
2019-05-05T22:20:07.578Z,38.73
2019-05-05T22:22:37.962Z,50.75
2019-05-05T22:25:07.655Z,48.33
2019-05-05T22:30:10.269Z,43.35
2019-05-05T22:32:38.556Z,44.45
2019-05-05T22:35:07.591Z,46.63
2019-05-05T22:37:36.401Z,47.93
2019-05-05T22:40:05.332Z,47.23
2019-05-05T22:42:34.250Z,50.35
2019-05-05T22:45:04.631Z,44.90
2019-05-05T22:47:34.487Z,45.25
2019-05-05T22:50:04.470Z,45.12
2019-05-05T22:52:34.407Z,40.20
2019-05-05T22:55:04.505Z,44.98
2019-05-05T22:57:34.442Z,43.90
2019-05-05T23:00:05.198Z,42.13
2019-05-05T23:02:35.604Z,43.20
2019-05-05T23:05:16.494Z,40.90
2019-05-05T23:07:45.251Z,35.60
2019-05-05T23:10:14.139Z,37.97
2019-05-05T23:12:43.981Z,38.33
2019-05-05T23:17:55.874Z,44.45
2019-05-05T23:20:45.320Z,44.65
2019-05-05T23:23:15.722Z,36.93
2019-05-05T23:25:46.149Z,43.20
2019-05-05T23:28:14.895Z,44.13
2019-05-05T23:30:44.719Z,40.85
2019-05-05T23:33:14.285Z,45.58
2019-05-05T23:35:43.730Z,45.98
2019-05-05T23:38:14.311Z,46.42
2019-05-05T23:40:42.832Z,50.88
2019-05-05T23:43:13.803Z,51.68
2019-05-05T23:45:41.984Z,57.30
2019-05-05T23:48:10.735Z,51.07
2019-05-05T23:50:39.504Z,50.30
2019-05-05T23:53:08.325Z,50.80
2019-05-05T23:55:37.088Z,50.45
2019-05-05T23:58:05.869Z,63.23
